Time;durP1;ratioP1;P1;durP2;ratioP2;P2;SDS_P1;SDS_P2;PMS_P1;PMS_P2;Temp;Humidity;BMP_temperature;BMP_pressure;BME280_temperature;BME280_humidity;BME280_pressure;Samples;Min_cycle;Max_cycle;Signal;HPM_P1;HPM_P2
2023/07/20 00:01:10;;;;;;;0.97;0.97;;;;;;;23.52;53.06;95230.41;4356558;32;20261;-60
2023/07/20 00:03:35;;;;;;;0.63;0.63;;;;;;;23.53;54.86;95231.16;4345205;32;20211;-60
2023/07/20 00:06:01;;;;;;;0.63;0.63;;;;;;;23.58;54.47;95241.66;4342333;32;20239;-60
2023/07/20 00:08:26;;;;;;;0.67;0.67;;;;;;;23.53;53.20;95231.94;4346727;32;20213;-60
2023/07/20 00:10:51;;;;;;;1.13;0.80;;;;;;;23.55;54.79;95237.00;4353713;32;20197;-60
2023/07/20 00:13:18;;;;;;;1.20;0.47;;;;;;;23.51;53.82;95241.56;4359080;32;20189;-60
2023/07/20 00:15:44;;;;;;;0.83;0.83;;;;;;;23.51;53.90;95238.88;4341035;32;20197;-60
2023/07/20 00:18:09;;;;;;;0.40;0.40;;;;;;;23.48;54.21;95228.81;4360804;32;20219;-60
2023/07/20 00:20:35;;;;;;;2.77;0.73;;;;;;;23.40;53.93;95224.50;4343915;32;20185;-60
2023/07/20 00:23:00;;;;;;;0.40;0.30;;;;;;;23.42;54.08;95224.91;4361075;32;20239;-60
2023/07/20 00:25:25;;;;;;;0.43;0.43;;;;;;;23.45;54.34;95221.44;4356776;32;20189;-60
2023/07/20 00:27:51;;;;;;;0.37;0.30;;;;;;;23.39;54.00;95222.94;4358011;32;20184;-60
2023/07/20 00:30:16;;;;;;;0.40;0.40;;;;;;;23.35;53.69;95227.56;4343899;32;20218;-60
2023/07/20 00:32:42;;;;;;;0.50;0.50;;;;;;;23.36;53.34;95224.47;4359993;32;20236;-60
2023/07/20 00:35:07;;;;;;;0.53;0.53;;;;;;;23.41;54.28;95224.13;4341383;32;20380;-60
2023/07/20 00:37:33;;;;;;;0.50;0.50;;;;;;;23.46;54.91;95231.13;4360116;32;20189;-60
2023/07/20 00:39:58;;;;;;;0.60;0.60;;;;;;;23.43;54.46;95235.34;4360017;32;20236;-60
2023/07/20 00:42:23;;;;;;;1.00;1.00;;;;;;;23.45;53.60;95243.88;4343225;32;20216;-60
2023/07/20 00:44:49;;;;;;;0.53;0.53;;;;;;;23.47;54.17;95251.63;4358225;32;20203;-61
2023/07/20 00:47:15;;;;;;;0.60;0.60;;;;;;;23.39;53.51;95253.50;4362711;32;20188;-60
2023/07/20 00:49:40;;;;;;;0.73;0.73;;;;;;;23.31;53.63;95255.38;4360316;32;20221;-60
2023/07/20 00:52:07;;;;;;;0.53;0.53;;;;;;;23.38;54.72;95248.47;4360673;32;20190;-60
2023/07/20 00:54:33;;;;;;;0.33;0.33;;;;;;;23.38;55.41;95245.75;4346549;32;20211;-60
2023/07/20 00:57:00;;;;;;;0.43;0.43;;;;;;;23.30;55.68;95247.63;4341145;32;20250;-60
2023/07/20 00:59:26;;;;;;;0.20;0.20;;;;;;;23.35;55.06;95246.50;4349139;32;20320;-60
2023/07/20 01:01:52;;;;;;;0.50;0.50;;;;;;;23.31;54.70;95249.19;4345168;32;20194;-60
2023/07/20 01:04:17;;;;;;;0.57;0.57;;;;;;;23.31;54.25;95255.38;4348586;32;20243;-60
2023/07/20 01:06:54;;;;;;;0.30;0.30;;;;;;;23.27;53.94;95249.19;4355685;32;20196;-60
2023/07/20 01:09:31;;;;;;;2.30;0.93;;;;;;;23.32;54.67;95261.56;4344863;32;20236;-60
2023/07/20 01:12:03;;;;;;;0.23;0.23;;;;;;;23.30;55.36;95253.81;4339576;32;20193;-61
2023/07/20 01:14:29;;;;;;;1.07;0.50;;;;;;;23.32;54.61;95256.16;4343298;32;20293;-61
2023/07/20 01:16:54;;;;;;;0.40;0.40;;;;;;;23.23;54.17;95250.31;4357752;32;20192;-60
2023/07/20 01:19:20;;;;;;;0.57;0.57;;;;;;;23.26;55.54;95244.91;4357513;32;20185;-61
2023/07/20 01:21:58;;;;;;;4.67;1.13;;;;;;;23.34;53.79;95239.53;4359677;32;20224;-61
2023/07/20 01:24:48;;;;;;;0.67;0.67;;;;;;;23.30;56.13;95240.28;4344179;32;20228;-61
2023/07/20 01:27:37;;;;;;;0.30;0.30;;;;;;;23.26;55.36;95238.72;4344297;32;20197;-60
2023/07/20 01:30:23;;;;;;;0.67;0.43;;;;;;;23.21;54.66;95241.78;4326276;32;20220;-60
2023/07/20 01:32:50;;;;;;;1.43;0.77;;;;;;;23.28;55.73;95247.22;4353451;32;20189;-61
2023/07/20 01:35:16;;;;;;;0.83;0.70;;;;;;;23.19;55.20;95244.84;4344061;32;20205;-60
2023/07/20 01:37:44;;;;;;;0.67;0.60;;;;;;;23.17;56.08;95243.69;4357089;32;20196;-60
2023/07/20 01:40:10;;;;;;;0.67;0.67;;;;;;;23.20;56.80;95246.41;4358695;32;20253;-60
2023/07/20 01:42:36;;;;;;;0.47;0.47;;;;;;;23.19;56.70;95241.38;4342492;32;20189;-60
2023/07/20 01:45:01;;;;;;;0.57;0.57;;;;;;;23.19;56.18;95247.56;4356690;32;20299;-60
2023/07/20 01:47:26;;;;;;;1.70;0.33;;;;;;;23.12;55.82;95247.50;4349440;32;20196;-60
2023/07/20 01:49:52;;;;;;;0.13;0.13;;;;;;;23.14;55.46;95255.25;4356949;32;20258;-60
2023/07/20 01:52:17;;;;;;;0.37;0.37;;;;;;;23.12;56.38;95255.63;4342612;32;20239;-60
2023/07/20 01:54:42;;;;;;;0.50;0.50;;;;;;;23.14;56.76;95247.91;4341955;32;20192;-60
2023/07/20 01:57:08;;;;;;;0.90;0.83;;;;;;;23.18;56.53;95251.44;4343249;32;20334;-60
2023/07/20 01:59:33;;;;;;;0.50;0.50;;;;;;;23.06;55.82;95251.72;4347426;32;20200;-60
2023/07/20 02:01:58;;;;;;;0.67;0.30;;;;;;;23.10;56.21;95255.22;4347060;32;20294;-60
2023/07/20 02:04:24;;;;;;;2.53;0.67;;;;;;;23.01;55.05;95252.06;4346788;32;20214;-60
2023/07/20 02:06:49;;;;;;;0.63;0.63;;;;;;;22.99;56.02;95248.19;4359720;32;20289;-60
2023/07/20 02:09:14;;;;;;;0.47;0.43;;;;;;;23.00;56.49;95252.44;4346184;32;20213;-60
2023/07/20 02:11:39;;;;;;;0.47;0.43;;;;;;;23.04;56.44;95251.31;4341601;32;20245;-60
2023/07/20 02:14:05;;;;;;;0.40;0.40;;;;;;;23.03;56.42;95255.19;4343458;32;20256;-60
2023/07/20 02:16:30;;;;;;;0.30;0.30;;;;;;;23.06;56.85;95254.44;4360589;32;20261;-60
2023/07/20 02:18:56;;;;;;;0.50;0.50;;;;;;;23.06;56.35;95253.66;4359236;32;20201;-60
2023/07/20 02:21:22;;;;;;;0.40;0.40;;;;;;;23.01;56.19;95256.69;4359839;32;20242;-60
2023/07/20 02:23:48;;;;;;;2.13;0.73;;;;;;;23.00;56.47;95250.50;4349010;32;20197;-60
2023/07/20 02:26:13;;;;;;;0.60;0.60;;;;;;;23.02;57.20;95253.63;4362656;32;20226;-60
2023/07/20 02:28:39;;;;;;;0.30;0.30;;;;;;;22.95;55.64;95254.34;4362674;32;20192;-60
2023/07/20 02:31:04;;;;;;;0.43;0.43;;;;;;;22.95;55.74;95253.56;4348446;32;20197;-60
2023/07/20 02:33:29;;;;;;;1.07;1.00;;;;;;;22.95;56.14;95261.69;4346350;32;20198;-60
2023/07/20 02:35:55;;;;;;;1.53;0.80;;;;;;;22.83;55.45;95253.84;4346538;32;20189;-60
2023/07/20 02:38:20;;;;;;;0.90;0.90;;;;;;;22.83;56.19;95251.16;4362985;32;20249;-59
2023/07/20 02:40:46;;;;;;;0.50;0.50;;;;;;;22.87;56.66;95255.41;4347335;32;20240;-60
2023/07/20 02:43:11;;;;;;;0.67;0.67;;;;;;;22.65;56.08;95250.97;4359136;32;20189;-60
2023/07/20 02:45:40;;;;;;;0.43;0.40;;;;;;;22.64;56.25;95249.41;4360257;32;20207;-60
2023/07/20 02:48:07;;;;;;;0.53;0.53;;;;;;;22.60;55.53;95251.28;4348194;32;20235;-60
2023/07/20 02:50:34;;;;;;;0.23;0.23;;;;;;;22.62;56.17;95251.69;4360795;32;20181;-60
2023/07/20 02:52:59;;;;;;;0.77;0.77;;;;;;;22.72;55.99;95261.03;4341587;32;20319;-60
2023/07/20 02:55:25;;;;;;;0.43;0.37;;;;;;;22.62;55.30;95257.88;4360055;32;20188;-60
2023/07/20 02:57:50;;;;;;;0.63;0.40;;;;;;;22.67;55.78;95277.59;4345689;32;20189;-60
2023/07/20 03:00:16;;;;;;;0.50;0.50;;;;;;;22.75;56.39;95281.94;4354019;32;20225;-60
2023/07/20 03:02:41;;;;;;;0.20;0.20;;;;;;;22.77;56.96;95287.78;4342142;32;20185;-60
2023/07/20 03:05:07;;;;;;;0.57;0.57;;;;;;;22.75;58.36;95295.47;4350731;32;20299;-61
2023/07/20 03:07:33;;;;;;;0.73;0.73;;;;;;;22.73;58.95;95295.06;4359565;32;20193;-60
2023/07/20 03:09:58;;;;;;;0.63;0.63;;;;;;;22.63;59.49;95283.78;4354945;32;20231;-60
2023/07/20 03:12:24;;;;;;;0.20;0.20;;;;;;;22.55;59.83;95279.44;4353519;32;20181;-60
2023/07/20 03:14:49;;;;;;;0.10;0.10;;;;;;;22.50;60.37;95276.28;4346710;32;20256;-61
2023/07/20 03:17:15;;;;;;;0.30;0.30;;;;;;;22.50;60.82;95281.69;4352642;32;20181;-60
2023/07/20 03:19:40;;;;;;;0.70;0.70;;;;;;;22.37;61.33;95288.50;4347582;32;20188;-60
2023/07/20 03:22:06;;;;;;;0.30;0.30;;;;;;;22.40;61.58;95291.25;4346219;32;20236;-60
2023/07/20 03:24:31;;;;;;;0.70;0.70;;;;;;;22.28;61.67;95292.25;4361598;32;20270;-60
2023/07/20 03:26:57;;;;;;;0.20;0.20;;;;;;;22.26;61.90;95299.97;4352637;32;20190;-60
2023/07/20 03:29:22;;;;;;;4.47;0.70;;;;;;;22.36;61.54;95295.84;4342239;32;20212;-60
2023/07/20 03:31:48;;;;;;;0.63;0.63;;;;;;;22.21;61.98;95305.72;4363253;32;20204;-60
2023/07/20 03:34:13;;;;;;;0.33;0.33;;;;;;;22.25;62.72;95313.84;4361461;32;20188;-60
2023/07/20 03:36:38;;;;;;;0.10;0.10;;;;;;;22.20;63.10;95330.41;4366467;32;20207;-60
2023/07/20 03:39:04;;;;;;;0.10;0.10;;;;;;;22.21;63.23;95313.03;4350576;32;20265;-60
2023/07/20 03:41:29;;;;;;;1.60;0.80;;;;;;;22.11;63.74;95319.09;4361508;32;20247;-60
2023/07/20 03:43:54;;;;;;;0.20;0.20;;;;;;;22.04;63.78;95314.34;4350067;32;20198;-60
2023/07/20 03:46:20;;;;;;;0.40;0.40;;;;;;;22.03;64.40;95312.06;4345708;32;20208;-60
2023/07/20 03:48:45;;;;;;;0.20;0.20;;;;;;;21.99;64.45;95316.59;4363370;32;20189;-60
2023/07/20 03:51:11;;;;;;;0.20;0.20;;;;;;;22.03;64.62;95312.06;4348037;32;20188;-60
2023/07/20 03:53:36;;;;;;;0.50;0.50;;;;;;;21.91;64.83;95308.38;4361026;32;20189;-60
2023/07/20 03:56:01;;;;;;;0.10;0.10;;;;;;;21.92;64.44;95312.66;4361109;32;20243;-60
2023/07/20 03:58:27;;;;;;;0.20;0.20;;;;;;;21.92;64.95;95312.66;4361135;32;20230;-60
2023/07/20 04:00:52;;;;;;;0.40;0.40;;;;;;;21.90;64.89;95312.22;4347378;32;20201;-60
2023/07/20 04:03:19;;;;;;;0.50;0.50;;;;;;;21.98;64.63;95315.03;4362783;32;20216;-60
2023/07/20 04:05:44;;;;;;;0.97;0.50;;;;;;;22.06;64.54;95327.50;4348901;32;20211;-60
2023/07/20 04:08:13;;;;;;;1.60;0.50;;;;;;;21.91;64.35;95326.50;4345818;32;20201;-60
2023/07/20 04:10:39;;;;;;;0.30;0.30;;;;;;;21.88;64.46;95328.03;4361797;32;20330;-60
2023/07/20 04:13:05;;;;;;;0.17;0.17;;;;;;;21.88;64.65;95325.31;4346857;32;20197;-60
2023/07/20 04:15:31;;;;;;;0.20;0.20;;;;;;;21.91;64.29;95332.69;4360055;32;20240;-60
2023/07/20 04:17:56;;;;;;;0.30;0.30;;;;;;;21.95;64.23;95322.72;4346992;32;20197;-60
2023/07/20 04:20:23;;;;;;;0.83;0.43;;;;;;;21.85;65.12;95328.75;4360220;32;20228;-60
2023/07/20 04:22:49;;;;;;;0.97;0.43;;;;;;;21.86;64.69;95318.72;4346110;32;20188;-61
2023/07/20 04:25:15;;;;;;;0.63;0.63;;;;;;;21.80;64.93;95322.91;4349083;32;20240;-60
2023/07/20 04:27:40;;;;;;;0.40;0.40;;;;;;;21.73;64.67;95326.28;4347344;32;20246;-60
2023/07/20 04:30:08;;;;;;;0.53;0.53;;;;;;;21.82;64.27;95324.06;4346475;32;20212;-60
2023/07/20 04:32:33;;;;;;;0.50;0.50;;;;;;;21.84;64.46;95327.19;4359079;32;20203;-60
2023/07/20 04:34:59;;;;;;;0.50;0.50;;;;;;;21.87;64.44;95325.69;4360947;32;20595;-60
2023/07/20 04:37:24;;;;;;;0.40;0.40;;;;;;;21.87;64.63;95322.97;4341598;32;20241;-60
2023/07/20 04:39:49;;;;;;;0.37;0.37;;;;;;;21.88;64.32;95328.03;4346396;32;20249;-60
2023/07/20 04:42:15;;;;;;;0.50;0.50;;;;;;;21.94;64.22;95331.97;4345774;32;20246;-60
2023/07/20 04:44:40;;;;;;;0.93;0.93;;;;;;;21.95;64.31;95333.53;4345867;32;20189;-60
2023/07/20 04:47:06;;;;;;;0.93;0.93;;;;;;;21.85;64.01;95334.16;4346587;32;20212;-60
2023/07/20 04:49:31;;;;;;;0.87;0.87;;;;;;;21.78;64.48;95336.78;4346413;32;20193;-60
2023/07/20 04:51:56;;;;;;;0.23;0.23;;;;;;;21.84;64.27;95334.50;4356070;32;20204;-60
2023/07/20 04:54:22;;;;;;;0.40;0.40;;;;;;;21.89;63.85;95334.19;4338371;32;20212;-60
2023/07/20 04:56:50;;;;;;;0.77;0.77;;;;;;;21.93;63.67;95326.94;4361331;32;20228;-60
2023/07/20 04:59:15;;;;;;;0.30;0.30;;;;;;;21.92;63.34;95338.88;4349241;32;20211;-60
2023/07/20 05:01:41;;;;;;;3.93;0.90;;;;;;;21.86;62.99;95335.72;4344504;32;20197;-60
2023/07/20 05:04:06;;;;;;;0.20;0.20;;;;;;;21.96;64.73;95334.31;4353833;32;20282;-60
2023/07/20 05:06:32;;;;;;;0.37;0.37;;;;;;;21.82;62.35;95344.94;4345975;32;20208;-60
2023/07/20 05:08:57;;;;;;;0.47;0.47;;;;;;;21.90;62.93;95343.87;4345948;32;20189;-60
2023/07/20 05:11:22;;;;;;;0.90;0.90;;;;;;;21.84;61.91;95343.41;4338520;32;20209;-61
2023/07/20 05:13:48;;;;;;;0.70;0.70;;;;;;;21.83;62.20;95341.84;4351853;32;20207;-60
2023/07/20 05:16:13;;;;;;;0.77;0.77;;;;;;;21.85;62.68;95350.34;4356406;32;20197;-60
2023/07/20 05:18:38;;;;;;;0.20;0.20;;;;;;;21.92;61.97;95349.69;4355267;32;20204;-60
2023/07/20 05:21:05;;;;;;;0.57;0.57;;;;;;;21.98;62.26;95344.75;4358599;32;20283;-60
2023/07/20 05:23:31;;;;;;;0.20;0.20;;;;;;;21.84;60.97;95348.81;4343317;32;20259;-60
2023/07/20 05:25:59;;;;;;;0.47;0.47;;;;;;;21.80;61.12;95353.41;4346701;32;20280;-60
2023/07/20 05:28:26;;;;;;;0.50;0.50;;;;;;;21.75;61.61;95350.22;4339835;32;20208;-60
2023/07/20 05:30:52;;;;;;;1.23;0.93;;;;;;;21.71;59.02;95350.16;4354938;32;20201;-60
2023/07/20 05:33:19;;;;;;;1.27;0.93;;;;;;;21.90;59.14;95347.34;4349682;32;20185;-60
2023/07/20 05:35:44;;;;;;;0.40;0.40;;;;;;;21.95;60.14;95344.34;4346328;32;20211;-60
2023/07/20 05:38:09;;;;;;;0.87;0.87;;;;;;;21.80;58.61;95339.88;4355229;32;20193;-60
2023/07/20 05:40:38;;;;;;;0.40;0.40;;;;;;;21.86;57.98;95346.50;4346085;32;20185;-60
2023/07/20 05:43:03;;;;;;;0.50;0.50;;;;;;;21.93;58.95;95351.25;4338328;32;20208;-60
2023/07/20 05:45:28;;;;;;;0.93;0.80;;;;;;;21.94;58.41;95352.81;4339246;32;20185;-60
2023/07/20 05:47:54;;;;;;;0.40;0.40;;;;;;;21.82;57.22;95353.03;4346850;32;20193;-60
2023/07/20 05:50:19;;;;;;;0.80;0.80;;;;;;;21.91;57.01;95348.91;4344869;32;20275;-61
2023/07/20 05:52:44;;;;;;;0.17;0.17;;;;;;;21.93;58.49;95359.34;4360860;32;20207;-60
2023/07/20 05:55:10;;;;;;;0.80;0.80;;;;;;;21.96;59.56;95353.22;4358550;32;20217;-62
2023/07/20 05:57:35;;;;;;;0.30;0.30;;;;;;;21.88;58.03;95359.66;4344487;32;20189;-60
2023/07/20 06:00:01;;;;;;;0.70;0.70;;;;;;;21.86;57.73;95357.31;4358800;32;20196;-60
2023/07/20 06:02:26;;;;;;;0.30;0.30;;;;;;;21.78;57.35;95366.47;4359895;32;20239;-60
2023/07/20 06:04:51;;;;;;;0.43;0.43;;;;;;;21.85;57.29;95360.38;4360054;32;20196;-60
2023/07/20 06:07:16;;;;;;;0.70;0.53;;;;;;;21.76;55.58;95362.59;4350123;32;20197;-60
2023/07/20 06:09:42;;;;;;;14.13;0.60;;;;;;;21.73;57.10;95369.50;4360134;32;20193;-60
2023/07/20 06:12:08;;;;;;;0.43;0.43;;;;;;;21.66;56.79;95365.88;4356273;32;20236;-60
2023/07/20 06:14:34;;;;;;;1.53;1.33;;;;;;;21.74;57.63;95360.25;4359066;32;20234;-60
2023/07/20 06:16:59;;;;;;;5.73;1.10;;;;;;;22.19;59.69;95364.00;4345966;32;20253;-60
2023/07/20 06:19:24;;;;;;;1.20;0.60;;;;;;;22.47;55.97;95364.31;4343641;32;20244;-60
2023/07/20 06:21:50;;;;;;;0.20;0.20;;;;;;;22.52;54.05;95363.22;4340677;32;20248;-60
2023/07/20 06:24:16;;;;;;;0.40;0.40;;;;;;;22.41;54.05;95356.94;4340565;32;20216;-60
2023/07/20 06:26:42;;;;;;;1.03;0.97;;;;;;;22.47;53.65;95361.63;4340515;32;20219;-60
2023/07/20 06:29:08;;;;;;;0.43;0.43;;;;;;;22.44;53.02;95370.50;4346727;32;20201;-60
2023/07/20 06:31:35;;;;;;;1.47;0.73;;;;;;;22.15;53.75;95369.34;4359068;32;20258;-60
2023/07/20 06:34:00;;;;;;;0.30;0.30;;;;;;;22.21;52.72;95367.09;4360773;32;20286;-60
2023/07/20 06:36:26;;;;;;;1.37;0.80;;;;;;;22.22;53.50;95369.44;4339595;32;20189;-60
2023/07/20 06:38:52;;;;;;;0.40;0.33;;;;;;;21.84;53.69;95366.94;4356029;32;20266;-60
2023/07/20 06:41:18;;;;;;;0.60;0.60;;;;;;;21.98;54.20;95361.75;4350798;32;20197;-60
2023/07/20 06:43:44;;;;;;;0.50;0.50;;;;;;;21.99;52.12;95363.31;4362043;32;20238;-60
2023/07/20 06:46:09;;;;;;;0.67;0.67;;;;;;;22.29;52.82;95360.63;4357282;32;20261;-60
2023/07/20 06:48:34;;;;;;;0.23;0.23;;;;;;;22.32;52.35;95361.81;4339208;32;20253;-60
2023/07/20 06:50:59;;;;;;;1.37;0.80;;;;;;;22.22;51.71;95369.44;4345454;32;20264;-60
2023/07/20 06:53:25;;;;;;;0.30;0.30;;;;;;;22.33;52.28;95369.56;4362220;32;20232;-60
2023/07/20 06:55:50;;;;;;;0.63;0.63;;;;;;;22.02;53.06;95356.44;4358562;32;20293;-60
2023/07/20 06:58:17;;;;;;;0.43;0.43;;;;;;;21.99;51.53;95354.41;4348516;32;20207;-60
2023/07/20 07:00:43;;;;;;;0.60;0.60;;;;;;;21.79;51.87;95365.34;4348414;32;20207;-60
2023/07/20 07:03:08;;;;;;;0.20;0.20;;;;;;;22.11;53.19;95363.09;4345690;32;20264;-60
2023/07/20 07:05:37;;;;;;;0.50;0.50;;;;;;;22.08;52.94;95363.06;4361900;32;20196;-60
2023/07/20 07:08:04;;;;;;;0.40;0.40;;;;;;;22.14;52.75;95362.38;4361029;32;20244;-58
2023/07/20 07:10:29;;;;;;;0.20;0.20;;;;;;;22.15;53.04;95360.47;4362136;32;20227;-59
2023/07/20 07:12:55;;;;;;;0.60;0.40;;;;;;;21.99;53.36;95355.19;4346095;32;20181;-59
2023/07/20 07:15:20;;;;;;;0.57;0.50;;;;;;;22.10;52.83;95355.34;4361131;32;20255;-58
2023/07/20 07:17:45;;;;;;;1.03;1.03;;;;;;;22.12;52.55;95358.47;4351142;32;20188;-59
2023/07/20 07:20:11;;;;;;;0.97;0.57;;;;;;;21.97;54.14;95365.59;4360362;32;20219;-59
2023/07/20 07:22:36;;;;;;;0.57;0.57;;;;;;;22.04;53.71;95362.22;4357664;32;20220;-58
2023/07/20 07:25:03;;;;;;;0.47;0.47;;;;;;;21.85;51.31;95368.50;4345346;32;20197;-58
2023/07/20 07:27:28;;;;;;;0.40;0.33;;;;;;;22.20;52.91;95362.84;4356063;32;20234;-59
2023/07/20 07:29:54;;;;;;;7.03;1.27;;;;;;;22.23;51.27;95362.13;4359320;32;20197;-59
2023/07/20 07:32:20;;;;;;;0.40;0.40;;;;;;;22.31;50.40;95358.34;4362036;32;20181;-59
2023/07/20 07:34:48;;;;;;;0.40;0.40;;;;;;;22.11;51.72;95362.31;4364112;32;20207;-59
2023/07/20 07:37:14;;;;;;;3.50;0.40;;;;;;;22.18;51.90;95357.03;4342807;32;20200;-59
2023/07/20 07:39:39;;;;;;;1.37;0.70;;;;;;;22.10;52.12;95368.88;4340430;32;20265;-59
2023/07/20 07:42:05;;;;;;;1.17;1.10;;;;;;;22.05;52.12;95369.19;4349732;32;20201;-58
2023/07/20 07:44:31;;;;;;;2.10;0.80;;;;;;;22.11;52.09;95373.13;4344519;32;20264;-58
2023/07/20 07:46:56;;;;;;;0.20;0.20;;;;;;;22.22;52.07;95379.47;4361776;32;20193;-59
2023/07/20 07:49:21;;;;;;;0.30;0.30;;;;;;;22.01;49.71;95371.84;4358027;32;20193;-61
2023/07/20 07:51:47;;;;;;;0.20;0.20;;;;;;;22.03;50.50;95364.12;4350119;32;20185;-58
2023/07/20 07:54:12;;;;;;;0.30;0.30;;;;;;;21.97;49.68;95367.50;4339930;32;20240;-59
2023/07/20 07:56:37;;;;;;;0.30;0.30;;;;;;;21.93;50.21;95370.94;4358404;32;20192;-59
2023/07/20 07:59:03;;;;;;;0.23;0.23;;;;;;;22.13;52.63;95370.84;4357001;32;20190;-59
2023/07/20 08:01:28;;;;;;;0.20;0.20;;;;;;;22.16;50.57;95370.91;4345984;32;20219;-59
2023/07/20 08:03:54;;;;;;;0.40;0.40;;;;;;;22.08;50.38;95371.16;4348021;32;20208;-59
2023/07/20 08:06:19;;;;;;;0.60;0.60;;;;;;;22.22;51.08;95376.78;4346771;32;20207;-59
2023/07/20 08:08:44;;;;;;;0.10;0.10;;;;;;;22.28;51.68;95373.38;4362802;32;20201;-59
2023/07/20 08:11:10;;;;;;;0.40;0.40;;;;;;;22.30;51.17;95375.69;4342968;32;20202;-63
2023/07/20 08:13:36;;;;;;;0.20;0.20;;;;;;;22.37;50.14;95375.03;4347381;32;20228;-62
2023/07/20 08:16:02;;;;;;;0.50;0.50;;;;;;;22.34;51.12;95375.75;4361381;32;20240;-59
2023/07/20 08:18:27;;;;;;;2.53;1.10;;;;;;;22.23;50.51;95375.63;4341444;32;20231;-61
2023/07/20 08:20:53;;;;;;;1.27;0.90;;;;;;;22.42;51.38;95377.41;4355177;32;20189;-61
2023/07/20 08:23:19;;;;;;;0.50;0.50;;;;;;;22.51;50.40;95375.97;4349042;32;20197;-61
2023/07/20 08:25:45;;;;;;;1.17;0.77;;;;;;;22.51;50.30;95378.69;4356198;32;20233;-61
2023/07/20 08:28:19;;;;;;;0.20;0.20;;;;;;;22.52;50.76;95377.53;4338715;32;20197;-61
2023/07/20 08:30:47;;;;;;;1.90;0.60;;;;;;;22.61;51.62;95369.91;4358839;32;20281;-61
2023/07/20 08:33:14;;;;;;;0.53;0.53;;;;;;;22.61;52.13;95382.66;4360793;32;20193;-60
2023/07/20 08:35:40;;;;;;;0.20;0.20;;;;;;;22.63;51.12;95378.44;4359544;32;20207;-62
2023/07/20 08:38:05;;;;;;;0.50;0.50;;;;;;;22.70;52.40;95374.25;4347396;32;20197;-61
2023/07/20 08:40:32;;;;;;;0.40;0.40;;;;;;;22.76;52.38;95380.91;4358842;32;20260;-62
2023/07/20 08:42:59;;;;;;;0.30;0.30;;;;;;;22.82;51.83;95374.03;4343519;32;20204;-61
2023/07/20 08:45:26;;;;;;;0.20;0.20;;;;;;;22.79;51.05;95372.84;4346715;32;20204;-60
2023/07/20 08:47:54;;;;;;;0.37;0.37;;;;;;;22.86;51.73;95375.63;4353985;32;20193;-61
2023/07/20 08:50:20;;;;;;;0.30;0.30;;;;;;;22.84;50.83;95375.22;4360742;32;20252;-62
2023/07/20 08:52:46;;;;;;;0.40;0.40;;;;;;;22.82;51.49;95374.03;4344752;32;20189;-62
2023/07/20 08:55:12;;;;;;;0.63;0.63;;;;;;;22.82;51.81;95374.03;4357967;32;20235;-62
2023/07/20 08:57:41;;;;;;;6.33;1.00;;;;;;;22.82;52.03;95380.22;4349832;32;20189;-61
2023/07/20 09:00:12;;;;;;;0.50;0.50;;;;;;;22.94;52.54;95379.19;4360526;32;20191;-62
2023/07/20 09:02:40;;;;;;;0.27;0.27;;;;;;;22.93;51.68;95374.91;4360756;32;20231;-61
2023/07/20 09:05:07;;;;;;;0.70;0.70;;;;;;;23.05;52.89;95377.38;4340553;32;20334;-62
2023/07/20 09:07:35;;;;;;;0.57;0.57;;;;;;;23.04;52.05;95373.13;4336624;32;20221;-61
2023/07/20 09:10:05;;;;;;;0.80;0.80;;;;;;;22.89;52.21;95368.69;4346296;32;20259;-61
2023/07/20 09:12:31;;;;;;;1.13;1.10;;;;;;;22.95;51.33;95370.69;4344159;32;20232;-61
2023/07/20 09:14:57;;;;;;;1.43;0.40;;;;;;;22.74;51.81;95366.97;4347129;32;20207;-61
2023/07/20 09:17:25;;;;;;;2.20;0.60;;;;;;;22.93;51.03;95358.69;4348780;32;20201;-61
2023/07/20 09:19:50;;;;;;;0.70;0.67;;;;;;;22.92;51.37;95365.25;4357929;32;20252;-61
2023/07/20 09:22:17;;;;;;;0.40;0.40;;;;;;;23.04;50.99;95369.63;4362466;32;20212;-61
2023/07/20 09:24:42;;;;;;;0.83;0.83;;;;;;;23.06;50.58;95354.59;4357423;32;20184;-61
2023/07/20 09:27:09;;;;;;;0.73;0.73;;;;;;;22.99;50.28;95356.44;4354902;32;20219;-61
2023/07/20 09:29:46;;;;;;;0.87;0.87;;;;;;;22.97;50.04;95362.22;4349317;32;20248;-61
2023/07/20 09:32:12;;;;;;;0.20;0.20;;;;;;;22.95;49.84;95356.38;4346862;32;20248;-61
2023/07/20 09:34:37;;;;;;;0.30;0.30;;;;;;;23.08;48.62;95354.97;4350177;32;20207;-61
2023/07/20 09:37:03;;;;;;;1.03;0.50;;;;;;;23.11;48.58;95353.44;4344428;32;20219;-61
2023/07/20 09:39:28;;;;;;;0.43;0.43;;;;;;;22.99;47.56;95361.84;4360576;32;20184;-61
2023/07/20 09:41:54;;;;;;;0.40;0.40;;;;;;;22.99;48.37;95357.22;4353244;32;20252;-62
2023/07/20 09:44:19;;;;;;;1.13;1.13;;;;;;;23.07;48.74;95348.00;4359897;32;20212;-61
2023/07/20 09:46:46;;;;;;;0.87;0.87;;;;;;;23.06;48.50;95353.81;4362690;32;20203;-62
2023/07/20 09:49:12;;;;;;;0.53;0.53;;;;;;;23.19;50.40;95345.03;4351798;32;20185;-61
2023/07/20 09:51:38;;;;;;;0.67;0.67;;;;;;;23.17;49.28;95354.66;4360210;32;20252;-61
2023/07/20 09:54:04;;;;;;;0.23;0.23;;;;;;;23.26;49.49;95347.03;4346849;32;20218;-61
2023/07/20 09:56:30;;;;;;;1.10;1.10;;;;;;;23.14;49.03;95347.28;4359381;32;20228;-62
2023/07/20 09:58:56;;;;;;;0.93;0.77;;;;;;;23.13;50.77;95338.38;4347393;32;20193;-62
2023/07/20 10:01:26;;;;;;;0.90;0.83;;;;;;;23.19;51.04;95342.31;4346968;32;20184;-61
2023/07/20 10:03:54;;;;;;;0.90;0.90;;;;;;;23.37;52.21;95347.88;4356499;32;20217;-62
2023/07/20 10:06:24;;;;;;;0.87;0.87;;;;;;;23.44;50.15;95341.75;4347297;32;20189;-61
2023/07/20 10:08:53;;;;;;;0.37;0.37;;;;;;;23.40;49.92;95340.94;4359441;32;20190;-61
2023/07/20 10:11:21;;;;;;;0.57;0.57;;;;;;;23.38;50.01;95345.94;4348961;32;20223;-61
2023/07/20 10:13:51;;;;;;;0.43;0.43;;;;;;;23.32;48.06;95340.09;4337579;32;20254;-63
2023/07/20 10:16:29;;;;;;;0.37;0.37;;;;;;;23.08;48.80;95349.53;4329895;32;20197;-62
2023/07/20 10:19:07;;;;;;;0.57;0.57;;;;;;;22.80;50.20;95349.28;4341480;32;20212;-62
2023/07/20 10:21:37;;;;;;;0.03;0.03;;;;;;;23.01;50.21;95348.72;4362942;32;20270;-62
2023/07/20 10:24:03;;;;;;;0.70;0.70;;;;;;;23.04;50.14;95348.75;4347518;32;20205;-62
2023/07/20 10:26:29;;;;;;;0.20;0.20;;;;;;;23.04;50.22;95337.94;4361528;32;20197;-62
2023/07/20 10:28:55;;;;;;;1.07;1.00;;;;;;;23.04;49.69;95343.34;4344461;32;20219;-63
2023/07/20 10:31:23;;;;;;;0.83;0.63;;;;;;;22.81;49.74;95340.03;4351559;32;20197;-62
2023/07/20 10:33:50;;;;;;;0.50;0.50;;;;;;;23.02;50.56;95348.34;4350943;32;20219;-62
2023/07/20 10:36:15;;;;;;;0.30;0.30;;;;;;;22.92;50.24;95352.50;4351150;32;20231;-62
2023/07/20 10:38:47;;;;;;;0.60;0.60;;;;;;;22.86;50.10;95342.41;4349500;32;20189;-63
2023/07/20 10:41:28;;;;;;;0.53;0.53;;;;;;;22.88;49.64;95340.06;4351995;32;20216;-62
2023/07/20 10:44:07;;;;;;;0.30;0.30;;;;;;;22.98;50.34;95339.41;4347109;32;20196;-63
2023/07/20 10:50:00;;;;;;;0.27;0.27;;;;;;;23.25;49.49;95331.94;4355916;32;20204;-63
2023/07/20 10:52:25;;;;;;;0.50;0.50;;;;;;;23.36;49.20;95327.38;4359488;32;20185;-62
2023/07/20 10:54:51;;;;;;;0.20;0.20;;;;;;;23.33;49.20;95322.69;4357295;32;20255;-62
2023/07/20 10:57:31;;;;;;;0.37;0.37;;;;;;;23.28;49.15;95318.41;4349391;32;20244;-63
2023/07/20 11:00:13;;;;;;;0.40;0.40;;;;;;;23.09;49.58;95318.63;4344714;32;20248;-63
2023/07/20 11:02:46;;;;;;;0.27;0.27;;;;;;;23.09;49.34;95321.34;4346427;32;20239;-63
2023/07/20 11:05:44;;;;;;;0.47;0.47;;;;;;;23.14;49.83;95320.22;4345659;32;20209;-63
2023/07/20 11:08:11;;;;;;;0.63;0.63;;;;;;;23.08;49.62;95319.00;4307104;32;20348;-63
2023/07/20 11:10:36;;;;;;;3.47;0.80;;;;;;;23.01;49.34;95317.03;4344996;32;20196;-63
2023/07/20 11:13:22;;;;;;;0.57;0.57;;;;;;;22.94;48.77;95320.44;4358896;32;20221;-63
2023/07/20 11:15:56;;;;;;;0.40;0.40;;;;;;;23.21;50.32;95299.41;4353809;32;20252;-63
2023/07/20 11:18:26;;;;;;;0.77;0.40;;;;;;;23.23;50.44;95312.56;4356360;32;20269;-63
2023/07/20 11:20:52;;;;;;;0.63;0.50;;;;;;;23.20;50.08;95307.91;4358824;32;20228;-62
2023/07/20 11:23:19;;;;;;;0.50;0.50;;;;;;;22.97;48.22;95305.37;4347626;32;20245;-62
2023/07/20 11:25:44;;;;;;;0.40;0.40;;;;;;;23.12;50.14;95307.06;4340114;32;20181;-62
2023/07/20 11:28:12;;;;;;;0.67;0.63;;;;;;;23.30;49.97;95305.25;4356119;32;20274;-61
2023/07/20 11:30:38;;;;;;;0.30;0.30;;;;;;;23.21;48.87;95307.53;4335846;32;20229;-62
2023/07/20 11:33:08;;;;;;;0.53;0.53;;;;;;;23.27;49.46;95314.16;4336756;32;20256;-63
2023/07/20 11:35:43;;;;;;;0.70;0.70;;;;;;;23.34;48.97;95297.19;4342318;32;20208;-62